Nearby METAR Reports

Meteorological Terminal Air Report (METAR)

K3I2 - Pt Pleasant, West Virginia, USA
Distance from station: S 11mi, 18km
Updated: Wed, 14-Nov-2018 8:30am EST
NOT Current
Clear
Clear
 Wind from calm
Wind: Calm
Temperature: 30°F , -1°C
Dew Point: 23°F , -5°C
Humidity: 75%
Barometer: 30.55 inHg , 1034.5 hPa
Clouds: Clear
Visibility: 10 miles , 16 km
2018/11/14 13:30 K3I2 141330Z AUTO 00000KT 10SM CLR M01/M05 A3055 RMK AO2 T10101047 PNO
KUNI - Athens, Ohio, USA
Distance from station: NW 13mi, 21km
Updated: Sat, 17-Nov-2018 5:35am EST
Overcast
Overcast
 Wind from calm
Wind: Calm
Temperature: 37°F , 3°C
Dew Point: 36°F , 2°C
Humidity: 93%
Barometer: 30.25 inHg , 1024.4 hPa
Clouds: Overcast
Visibility: 10 miles , 16 km
Cloud details: Overcast 2400 ft
2018/11/17 10:35 KUNI 171035Z AUTO 00000KT 10SM OVC024 03/02 A3025 RMK AO2 T00280020
 
KPKB - Parkersburg, West Virginia, USA
Distance from station: ENE 40mi, 65km
Updated: Sat, 17-Nov-2018 5:53am EST
Overcast
Overcast
 Wind from S
Wind: S 3 mph , 6 km/h
Temperature: 37°F , 3°C
Dew Point: 32°F , 0°C
Humidity: 81%
Barometer: 30.27 inHg , 1025.1 hPa
Clouds: Overcast
Visibility: 8 miles , 13 km
Cloud details: Overcast 2600 ft
2018/11/17 10:53 KPKB 171053Z AUTO 19003KT 8SM OVC026 03/00 A3027 RMK AO2 SLP257 T00280000
KCRW - Charleston, West Virginia, USA
Distance from station: SSE 55mi, 88km
Updated: Sat, 17-Nov-2018 5:54am EST
Overcast
Overcast
 Wind from calm
Wind: Calm
Temperature: 39°F , 4°C
Dew Point: 36°F , 2°C
Humidity: 87%
Barometer: 30.26 inHg , 1024.7 hPa
Clouds: Overcast
Visibility: 10 miles , 16 km
Cloud details: Overcast 1800 ft
2018/11/17 10:54 KCRW 171054Z 00000KT 10SM OVC018 04/02 A3026 RMK AO2 SLP249 T00440022
 
KHTS - Huntington, West Virginia, USA
Distance from station: SSW 55mi, 89km
Updated: Sat, 17-Nov-2018 5:51am EST
Overcast
Overcast
 Wind from calm
Wind: Calm
Temperature: 37°F , 3°C
Dew Point: 36°F , 2°C
Humidity: 93%
Barometer: 30.25 inHg , 1024.4 hPa
Clouds: Overcast
Visibility: 7 miles , 11 km
Cloud details: Overcast 1800 ft
2018/11/17 10:51 KHTS 171051Z 00000KT 7SM OVC018 03/02 A3025 RMK AO2 SLP249 T00330017
KLHQ - Lancaster, Ohio, USA
Distance from station: NW 56mi, 91km
Updated: Sat, 17-Nov-2018 5:53am EST
Overcast
Overcast
 Wind from SW
Wind: SW 3 mph , 6 km/h
Temperature: 37°F , 3°C
Dew Point: 34°F , 1°C
Humidity: 87%
Barometer: 30.25 inHg , 1024.4 hPa
Clouds: Overcast
Visibility: 7 miles , 11 km
Cloud details: Overcast 2300 ft
2018/11/17 10:53 KLHQ 171053Z AUTO 22003KT 7SM OVC023 03/01 A3025 RMK AO2 SLP248 T00280011
 
KZZV - Zanesville, Ohio, USA
Distance from station: N 61mi, 99km
Updated: Sat, 17-Nov-2018 5:53am EST
Mist, Overcast
Mist, Overcast
 Wind from SW
Wind: SW 3 mph , 6 km/h
Temperature: 37°F , 3°C
Dew Point: 34°F , 1°C
Humidity: 87%
Barometer: 30.24 inHg , 1024 hPa
Summary: Mist
Clouds: Overcast
Visibility: 5 miles , 8 km
Cloud details: Overcast 2400 ft
2018/11/17 10:53 KZZV 171053Z AUTO 22003KT 5SM BR OVC024 03/01 A3024 RMK AO2 SLP246 T00280006
KLCK - Rickenbacker Ang, Ohio, USA
Distance from station: NW 68mi, 110km
Updated: Sat, 17-Nov-2018 5:55am EST
Overcast
Overcast
 Wind from SSW
Wind: SSW 6 mph , 9 km/h
Temperature: 36°F , 2°C
Wind Chill: 31°F , -1°C
Dew Point: 34°F , 1°C
Humidity: 93%
Barometer: 30.24 inHg , 1024 hPa
Clouds: Overcast
Visibility: 7 miles , 11 km
Cloud details: Overcast 2500 ft
2018/11/17 10:55 KLCK 171055Z AUTO 20005KT 7SM OVC025 02/01 A3024 RMK AO2 T00220007
 
KVTA - Newark, Ohio, USA
Distance from station: NNW 68mi, 110km
Updated: Sat, 17-Nov-2018 5:54am EST
Overcast
Overcast
 Wind from WSW
Wind: WSW 6 mph , 9 km/h
Temperature: 37°F , 3°C
Wind Chill: 32°F , 0°C
Dew Point: 34°F , 1°C
Humidity: 87%
Barometer: 30.23 inHg , 1023.7 hPa
Clouds: Overcast
Visibility: 9 miles , 14 km
Cloud details: Overcast 2500 ft
2018/11/17 10:54 KVTA 171054Z AUTO 24005KT 9SM OVC025 03/01 A3023 RMK AO2 SLP243 T00280006